Time;durP1;ratioP1;P1;durP2;ratioP2;P2;SDS_P1;SDS_P2;PMS_P1;PMS_P2;Temp;Humidity;BMP_temperature;BMP_pressure;BME280_temperature;BME280_humidity;BME280_pressure;Samples;Min_cycle;Max_cycle;Signal;HPM_P1;HPM_P2
2022/11/17 00:01:15;;;;;;;3.75;2.67;;;;;;;6.33;100.00;97889.77;4180398;83;28567;-82
2022/11/17 00:07:17;;;;;;;2.40;1.77;;;;;;;6.54;100.00;97890.23;4190660;83;28505;-81
2022/11/17 00:25:58;;;;;;;3.22;2.10;;;;;;;6.49;100.00;97890.92;4127787;84;28473;-83
2022/11/17 00:38:19;;;;;;;3.67;1.95;;;;;;;6.55;100.00;97904.67;4133196;84;28582;-84
2022/11/17 00:44:21;;;;;;;4.12;1.62;;;;;;;6.61;100.00;97911.47;4139247;84;28498;-81
2022/11/17 00:50:23;;;;;;;2.20;1.10;;;;;;;6.66;100.00;97912.40;4129614;84;28520;-80
2022/11/17 00:56:24;;;;;;;1.42;1.02;;;;;;;6.81;100.00;97910.59;4130184;84;28564;-80
2022/11/17 01:02:25;;;;;;;1.52;0.70;;;;;;;6.63;100.00;97903.53;4267941;82;28581;-80
2022/11/17 01:08:26;;;;;;;1.25;1.07;;;;;;;6.37;100.00;97910.94;4270013;81;28931;-81
2022/11/17 01:14:29;;;;;;;2.70;1.22;;;;;;;6.69;100.00;97909.79;4266298;82;28507;-82
2022/11/17 01:20:32;;;;;;;1.80;1.20;;;;;;;7.00;100.00;97907.77;4271793;82;28514;-83
2022/11/17 01:26:36;;;;;;;2.40;1.57;;;;;;;7.13;100.00;97895.19;4272546;82;28639;-82
2022/11/17 01:32:37;;;;;;;3.27;1.90;;;;;;;6.57;100.00;97872.40;4265684;82;28503;-82
2022/11/17 01:38:39;;;;;;;3.30;2.05;;;;;;;6.39;100.00;97859.99;4275826;82;28475;-83
2022/11/17 01:45:00;;;;;;;2.70;1.27;;;;;;;6.72;100.00;97869.76;4266138;82;28508;-82
2022/11/17 01:51:03;;;;;;;2.47;1.30;;;;;;;6.67;100.00;97885.18;4256500;82;28528;-81
2022/11/17 01:57:10;;;;;;;1.00;0.90;;;;;;;6.82;100.00;97894.02;4272926;82;28550;-82
2022/11/17 02:03:12;;;;;;;2.77;1.40;;;;;;;6.50;100.00;97894.39;4236755;82;28519;-81
2022/11/17 02:09:14;;;;;;;2.30;1.20;;;;;;;6.84;100.00;97882.59;4257200;82;28522;-83
2022/11/17 02:15:16;;;;;;;1.72;0.70;;;;;;;6.91;100.00;97882.46;4244008;83;28491;-83
2022/11/17 02:21:37;;;;;;;1.12;0.88;;;;;;;6.28;100.00;97901.65;4225306;83;28532;-82
2022/11/17 02:28:21;;;;;;;1.15;0.90;;;;;;;6.55;100.00;97888.64;4151821;84;28540;-82
2022/11/17 02:34:34;;;;;;;0.82;0.60;;;;;;;6.63;100.00;97882.16;4144049;85;28511;-83
2022/11/17 02:40:50;;;;;;;0.57;0.53;;;;;;;6.18;100.00;97883.55;4142380;85;28560;-83
2022/11/17 02:47:12;;;;;;;0.80;0.55;;;;;;;6.22;100.00;97867.35;4156875;84;28564;-82
2022/11/17 02:53:14;;;;;;;1.00;0.57;;;;;;;6.09;100.00;97837.72;4090124;86;28642;-82
2022/11/17 02:59:20;;;;;;;0.80;0.60;;;;;;;5.96;100.00;97836.55;4096959;86;28535;-82
2022/11/17 03:05:28;;;;;;;1.10;0.63;;;;;;;6.57;100.00;97856.91;4237317;82;28547;-82
2022/11/17 03:11:59;;;;;;;0.47;0.40;;;;;;;6.78;100.00;97879.52;4268228;82;28493;-82
2022/11/17 03:18:29;;;;;;;1.30;0.60;;;;;;;6.26;100.00;97877.88;4247964;81;28538;-83
2022/11/17 03:24:41;;;;;;;0.95;0.70;;;;;;;6.10;100.00;97878.03;4265715;82;28504;-83
2022/11/17 03:30:46;;;;;;;1.15;0.72;;;;;;;6.83;100.00;97877.76;4280082;82;28517;-84
2022/11/17 03:36:52;;;;;;;1.25;0.72;;;;;;;6.31;100.00;97879.02;4289891;82;28507;-83
2022/11/17 03:42:58;;;;;;;1.72;0.70;;;;;;;6.54;100.00;97876.34;4183166;83;28575;-81
2022/11/17 03:49:38;;;;;;;0.90;0.62;;;;;;;6.44;100.00;97873.98;4172146;84;28491;-83
2022/11/17 03:55:54;;;;;;;1.95;0.95;;;;;;;6.46;100.00;97885.23;4251700;82;28530;-82
2022/11/17 04:01:56;;;;;;;1.47;0.68;;;;;;;6.75;100.00;97879.99;4286316;82;28489;-81
2022/11/17 04:07:57;;;;;;;0.85;0.78;;;;;;;6.39;100.00;97892.83;4234581;81;28539;-78
2022/11/17 04:20:18;;;;;;;0.68;0.57;;;;;;;6.74;100.00;97882.37;4257615;82;28543;-80
2022/11/17 04:32:40;;;;;;;0.65;0.57;;;;;;;5.96;100.00;97891.25;4267967;82;28603;-85
2022/11/17 04:38:47;;;;;;;0.53;0.40;;;;;;;6.23;100.00;97894.33;4277068;82;28561;-85
2022/11/17 04:44:49;;;;;;;0.47;0.40;;;;;;;6.56;100.00;97892.14;4267603;82;28543;-81
2022/11/17 04:50:54;;;;;;;1.12;0.50;;;;;;;6.26;100.00;97900.56;4186997;83;28501;-81
2022/11/17 04:56:56;;;;;;;0.95;0.60;;;;;;;6.44;100.00;97894.01;4196514;84;28518;-80
2022/11/17 05:02:57;;;;;;;0.95;0.80;;;;;;;6.77;100.00;97894.75;4195874;83;28489;-82
2022/11/17 05:09:03;;;;;;;2.12;0.80;;;;;;;6.25;100.00;97896.27;4105222;85;28539;-90
2022/11/17 05:15:05;;;;;;;;;;;;;;;6.68;100.00;97895.61;4215323;83;28544;-81
2022/11/17 05:21:11;;;;;;;0.78;0.60;;;;;;;6.02;100.00;97896.22;4267349;82;20552;-80
2022/11/17 05:27:41;;;;;;;1.47;0.70;;;;;;;6.20;100.00;97890.80;4285011;82;28503;-80
2022/11/17 05:33:43;;;;;;;0.93;0.72;;;;;;;6.31;100.00;97897.70;4203245;83;28573;-80
2022/11/17 05:39:44;;;;;;;1.27;0.80;;;;;;;6.20;100.00;97906.02;4274308;82;28502;-80
2022/11/17 05:45:46;;;;;;;2.12;0.80;;;;;;;6.20;100.00;97905.48;4275596;82;28599;-80
2022/11/17 05:51:47;;;;;;;0.65;0.50;;;;;;;6.32;100.00;97902.00;4278364;82;28471;-81
2022/11/17 05:57:51;;;;;;;0.75;0.70;;;;;;;5.95;100.00;97905.63;4299772;81;28576;-82
2022/11/17 06:03:56;;;;;;;1.10;0.80;;;;;;;6.27;100.00;97897.35;4271876;81;28511;-81
2022/11/17 06:09:57;;;;;;;0.82;0.68;;;;;;;6.20;100.00;97920.69;4274394;81;28544;-79
2022/11/17 06:16:03;;;;;;;2.00;0.80;;;;;;;5.98;100.00;97921.17;4058418;85;28542;-83
2022/11/17 06:22:05;;;;;;;1.15;0.85;;;;;;;6.31;100.00;97944.42;4079984;85;28532;-81
2022/11/17 06:28:11;;;;;;;2.27;1.02;;;;;;;6.24;100.00;97936.53;4078514;85;28743;-92
2022/11/17 06:34:13;;;;;;;1.70;0.90;;;;;;;6.21;100.00;97945.00;4092191;85;28492;-87
2022/11/17 06:40:14;;;;;;;2.47;1.57;;;;;;;5.69;100.00;97945.00;4086618;85;28564;-87
2022/11/17 06:46:17;;;;;;;1.65;1.05;;;;;;;5.90;100.00;97949.54;4090376;84;28527;-81
2022/11/17 06:52:19;;;;;;;1.17;0.88;;;;;;;5.42;100.00;97972.83;4087841;85;28549;-79
2022/11/17 06:58:20;;;;;;;1.00;0.88;;;;;;;5.24;100.00;97970.16;4080706;85;28587;-79
2022/11/17 07:04:21;;;;;;;2.10;1.00;;;;;;;5.87;100.00;97984.14;4110522;85;28527;-79
2022/11/17 07:10:22;;;;;;;1.00;0.90;;;;;;;5.60;100.00;97975.69;4103606;83;28589;-79
2022/11/17 07:16:24;;;;;;;1.45;1.20;;;;;;;5.09;100.00;97976.66;4105348;85;28532;-79
2022/11/17 07:22:26;;;;;;;1.85;1.00;;;;;;;5.48;100.00;97978.28;4141359;83;28561;-80
2022/11/17 07:28:28;;;;;;;1.72;1.22;;;;;;;5.33;100.00;97977.33;4154011;83;28556;-79
2022/11/17 07:34:30;;;;;;;1.20;0.95;;;;;;;5.74;100.00;97982.47;4164229;83;28517;-79
2022/11/17 07:40:31;;;;;;;1.42;1.10;;;;;;;5.62;100.00;97988.27;4171200;83;28542;-79
2022/11/17 07:46:32;;;;;;;1.10;0.90;;;;;;;5.50;100.00;97990.87;4115051;84;28511;-80
2022/11/17 07:52:33;;;;;;;1.32;0.90;;;;;;;5.85;100.00;97990.23;4181330;83;28522;-80
2022/11/17 07:58:36;;;;;;;1.65;1.15;;;;;;;5.91;100.00;97999.98;4186606;82;28535;-79
2022/11/17 08:04:37;;;;;;;1.30;1.00;;;;;;;5.78;100.00;98002.84;4173011;84;28569;-79
2022/11/17 08:10:38;;;;;;;2.30;1.20;;;;;;;5.48;100.00;97999.11;4078831;85;28499;-79
2022/11/17 08:16:40;;;;;;;1.80;1.22;;;;;;;5.61;100.00;97983.98;4142435;85;28562;-80
2022/11/17 08:22:45;;;;;;;1.50;1.10;;;;;;;5.72;100.00;97985.88;4134845;85;28536;-80
2022/11/17 08:28:47;;;;;;;1.53;1.00;;;;;;;5.64;100.00;97990.19;4109370;85;28516;-79
2022/11/17 08:34:48;;;;;;;1.62;1.00;;;;;;;6.18;100.00;97996.16;4049593;86;28671;-78
2022/11/17 08:40:49;;;;;;;1.50;1.07;;;;;;;5.88;100.00;97987.11;4118339;85;28554;-79
2022/11/17 08:46:50;;;;;;;2.37;1.00;;;;;;;5.94;100.00;97999.55;4122782;85;28551;-79
2022/11/17 08:52:52;;;;;;;1.67;1.25;;;;;;;5.96;100.00;98002.80;4080082;85;28485;-79
2022/11/17 08:58:53;;;;;;;2.20;1.20;;;;;;;5.78;100.00;98005.00;4111220;85;28569;-80
2022/11/17 09:04:55;;;;;;;1.52;1.10;;;;;;;6.30;100.00;98017.55;4106517;85;28486;-80
2022/11/17 09:10:58;;;;;;;2.05;1.40;;;;;;;6.37;100.00;98010.27;4052045;85;28586;-80
2022/11/17 09:16:59;;;;;;;1.25;1.00;;;;;;;6.76;100.00;98008.51;4173988;83;28498;-80
2022/11/17 09:23:01;;;;;;;1.95;1.12;;;;;;;6.64;100.00;97998.63;4175266;84;28564;-80
2022/11/17 09:29:03;;;;;;;2.30;1.20;;;;;;;6.83;100.00;98003.87;4195992;83;28452;-80
2022/11/17 09:35:08;;;;;;;2.37;1.32;;;;;;;6.16;100.00;98007.58;4183276;84;28547;-80
2022/11/17 09:41:36;;;;;;;1.62;1.10;;;;;;;6.16;100.00;98007.58;4181768;84;28533;-80
2022/11/17 09:47:52;;;;;;;2.17;1.30;;;;;;;5.75;100.00;98012.09;4176710;84;28505;-80
2022/11/17 09:53:58;;;;;;;2.02;1.40;;;;;;;6.48;100.00;98011.31;4148923;84;28551;-80
2022/11/17 10:00:21;;;;;;;4.00;1.45;;;;;;;6.59;100.00;98010.52;4136495;84;28589;-80
2022/11/17 10:06:26;;;;;;;1.70;1.20;;;;;;;6.97;100.00;98003.09;4151391;84;28488;-78
2022/11/17 10:12:35;;;;;;;2.85;1.60;;;;;;;5.66;100.00;98007.59;4152854;84;28538;-79
2022/11/17 10:18:38;;;;;;;3.75;1.47;;;;;;;6.20;100.00;97998.09;4130120;84;28734;-79
2022/11/17 10:24:50;;;;;;;2.08;1.50;;;;;;;6.40;100.00;97996.45;4164245;83;28517;-79
2022/11/17 10:31:01;;;;;;;3.62;1.20;;;;;;;5.46;100.00;98016.36;4183850;83;28523;-79
2022/11/17 10:37:14;;;;;;;2.72;1.30;;;;;;;5.24;100.00;98002.94;4185857;83;28553;-80
2022/11/17 10:43:31;;;;;;;2.55;1.60;;;;;;;5.86;100.00;98011.33;4177534;83;28507;-78
2022/11/17 10:49:35;;;;;;;1.77;1.35;;;;;;;6.00;100.00;98012.50;4114444;84;28500;-79
2022/11/17 10:55:38;;;;;;;1.95;1.30;;;;;;;6.17;100.00;98016.70;4188725;83;28543;-79
2022/11/17 11:01:47;;;;;;;2.60;1.17;;;;;;;6.11;100.00;98018.43;4107456;84;28567;-79
2022/11/17 11:07:48;;;;;;;2.10;1.40;;;;;;;5.96;100.00;98013.98;4187253;83;28478;-79
2022/11/17 11:13:59;;;;;;;2.77;1.70;;;;;;;6.07;100.00;98012.44;4211618;83;28622;-79
2022/11/17 11:20:00;;;;;;;3.40;1.65;;;;;;;6.46;100.00;98011.56;4181104;83;28507;-79
2022/11/17 11:26:38;;;;;;;2.12;1.60;;;;;;;6.00;100.00;98018.64;4203836;83;28592;-79
2022/11/17 11:33:04;;;;;;;4.03;1.98;;;;;;;5.93;100.00;98023.78;4011355;87;28602;-78
2022/11/17 11:39:17;;;;;;;3.35;1.55;;;;;;;5.63;100.00;98020.05;4171627;84;28537;-79
2022/11/17 11:45:35;;;;;;;4.03;1.57;;;;;;;6.70;99.12;98009.70;4169167;84;28549;-79
2022/11/17 11:51:38;;;;;;;3.50;1.70;;;;;;;6.34;98.52;98022.71;4184662;83;28620;-79
2022/11/17 11:57:45;;;;;;;2.30;1.75;;;;;;;6.38;98.54;98016.69;4110537;85;28562;-79
2022/11/17 12:04:16;;;;;;;3.02;1.90;;;;;;;6.20;99.80;98020.78;4110837;84;28496;-79
2022/11/17 12:10:35;;;;;;;2.95;2.00;;;;;;;6.50;99.63;98017.23;4111939;84;28570;-79
2022/11/17 12:16:39;;;;;;;3.33;1.90;;;;;;;6.25;100.00;98015.56;4217778;83;28538;-79
2022/11/17 12:22:51;;;;;;;2.98;1.87;;;;;;;6.18;99.24;98004.16;4209675;83;28544;-79
2022/11/17 12:29:26;;;;;;;3.25;1.70;;;;;;;6.35;100.00;97998.47;4210704;83;28535;-78
2022/11/17 12:35:38;;;;;;;2.60;1.80;;;;;;;6.26;99.57;98019.86;4168234;83;28548;-79
2022/11/17 12:41:54;;;;;;;2.58;1.60;;;;;;;6.28;97.90;98028.44;4180902;83;28540;-79
2022/11/17 12:47:56;;;;;;;;;;;;;;;5.76;96.04;98032.39;4121021;85;28557;-78
2022/11/17 12:54:19;;;;;;;2.50;1.60;;;;;;;6.00;95.68;98038.65;4195923;83;20247;-78
2022/11/17 13:00:24;;;;;;;1.90;1.35;;;;;;;6.36;95.79;98021.45;4182070;82;28567;-78
2022/11/17 13:06:26;;;;;;;3.37;1.67;;;;;;;6.78;95.62;98023.78;4175147;83;28517;-79
2022/11/17 13:12:30;;;;;;;3.85;1.80;;;;;;;6.44;96.12;98036.32;4191938;83;28521;-79
2022/11/17 13:18:38;;;;;;;3.77;2.10;;;;;;;6.24;97.47;98049.97;4129399;84;28532;-79
2022/11/17 13:24:43;;;;;;;4.00;2.17;;;;;;;5.95;98.65;98056.38;4169500;83;28510;-79
2022/11/17 13:30:45;;;;;;;3.55;2.20;;;;;;;6.69;96.36;98032.66;4095917;84;28550;-79
2022/11/17 13:36:56;;;;;;;3.40;2.30;;;;;;;5.83;97.44;98054.98;4145998;84;28534;-79
2022/11/17 13:42:58;;;;;;;3.75;2.55;;;;;;;6.18;97.78;98050.36;4125124;84;28557;-79
2022/11/17 13:49:00;;;;;;;4.62;2.55;;;;;;;5.85;99.17;98054.26;4145478;84;28566;-80
2022/11/17 13:55:01;;;;;;;3.17;2.27;;;;;;;5.92;99.35;98049.63;4211097;83;28517;-78
2022/11/17 14:01:03;;;;;;;4.25;2.80;;;;;;;5.94;99.61;98060.09;4177908;83;28573;-79
2022/11/17 14:07:04;;;;;;;3.80;2.35;;;;;;;5.48;100.00;98064.42;4214144;83;28543;-79
2022/11/17 14:13:19;;;;;;;4.22;2.02;;;;;;;6.07;100.00;98061.81;4197205;83;28571;-79
2022/11/17 14:19:28;;;;;;;4.08;2.40;;;;;;;6.00;99.62;98046.66;4225520;82;28554;-78
2022/11/17 14:25:30;;;;;;;4.60;2.87;;;;;;;5.67;100.00;98047.89;4278780;82;28553;-78
2022/11/17 14:31:32;;;;;;;4.90;2.87;;;;;;;5.64;100.00;98055.52;4279908;82;28516;-78
2022/11/17 14:37:33;;;;;;;3.95;2.70;;;;;;;5.63;100.00;98055.23;4296826;82;28594;-79
2022/11/17 14:43:34;;;;;;;4.62;2.52;;;;;;;5.48;100.00;98065.76;4252199;82;28569;-78
2022/11/17 14:49:36;;;;;;;4.87;2.60;;;;;;;5.68;100.00;98051.39;4288871;82;28532;-78
2022/11/17 14:55:37;;;;;;;3.95;2.58;;;;;;;5.47;100.00;98065.47;4279840;82;28531;-78
2022/11/17 15:01:39;;;;;;;6.62;2.98;;;;;;;5.26;100.00;98046.70;4258002;82;28561;-78
2022/11/17 15:07:41;;;;;;;4.22;2.72;;;;;;;5.03;100.00;98043.63;4270311;82;28518;-77
2022/11/17 15:13:43;;;;;;;4.35;2.42;;;;;;;5.31;100.00;98041.55;4269736;82;28539;-80
2022/11/17 15:19:44;;;;;;;4.45;2.65;;;;;;;5.41;100.00;98030.35;4241453;82;28584;-78
2022/11/17 15:25:45;;;;;;;3.87;2.58;;;;;;;4.90;100.00;98027.78;4267594;82;28573;-79
2022/11/17 15:31:47;;;;;;;3.92;2.25;;;;;;;5.44;100.00;98021.39;4270193;82;28625;-79
2022/11/17 15:37:49;;;;;;;4.78;2.65;;;;;;;5.12;100.00;98017.54;4268416;82;28545;-80
2022/11/17 15:43:50;;;;;;;4.12;2.60;;;;;;;5.50;100.00;98013.53;4276771;82;28539;-79
2022/11/17 15:49:57;;;;;;;4.83;3.00;;;;;;;5.24;100.00;98009.61;4269135;82;28550;-77
2022/11/17 15:55:54;;;;;;;5.05;3.62;;;;;;;5.80;100.00;98005.58;4281399;82;28548;-79
2022/11/17 16:01:56;;;;;;;6.42;4.30;;;;;;;5.57;100.00;98010.27;4273474;82;28515;-79
2022/11/17 16:07:57;;;;;;;6.28;3.90;;;;;;;5.33;100.00;98012.81;4276743;82;28491;-79
2022/11/17 16:13:59;;;;;;;6.17;3.58;;;;;;;5.21;100.00;98016.72;4272097;82;28571;-78
2022/11/17 16:20:01;;;;;;;6.72;3.58;;;;;;;4.76;100.00;97992.46;4285082;81;28527;-81
2022/11/17 16:26:03;;;;;;;5.55;3.58;;;;;;;5.25;100.00;97995.24;4265596;82;28562;-78
2022/11/17 16:32:04;;;;;;;7.60;4.58;;;;;;;5.25;100.00;97999.77;4267702;82;28611;-81
2022/11/17 16:38:15;;;;;;;9.38;4.83;;;;;;;5.35;100.00;98007.23;4263932;82;28527;-84
2022/11/17 16:44:18;;;;;;;8.18;5.72;;;;;;;5.18;100.00;98009.17;4262321;82;28536;-85
2022/11/17 16:50:19;;;;;;;9.20;5.47;;;;;;;5.94;100.00;97998.72;4238946;82;28573;-84
2022/11/17 16:56:20;;;;;;;8.23;5.67;;;;;;;5.22;100.00;98003.69;4279968;82;29176;-83
2022/11/17 17:02:22;;;;;;;9.03;5.67;;;;;;;5.69;100.00;98009.01;4178784;83;28478;-85
2022/11/17 17:08:23;;;;;;;7.35;4.72;;;;;;;5.32;100.00;98024.52;4157247;85;28504;-85
2022/11/17 17:14:24;;;;;;;8.55;4.80;;;;;;;5.74;100.00;98023.80;4130823;83;28537;-84
2022/11/17 17:20:26;;;;;;;6.37;4.40;;;;;;;5.42;100.00;98021.31;4098229;85;28521;-84
2022/11/17 17:26:32;;;;;;;8.08;4.37;;;;;;;5.90;100.00;98033.04;4191814;84;28545;-84
2022/11/17 17:32:33;;;;;;;7.17;4.33;;;;;;;5.51;100.00;98025.31;4033437;87;28549;-85
2022/11/17 17:38:35;;;;;;;6.20;4.17;;;;;;;5.40;100.00;98028.72;4179102;84;28630;-89
2022/11/17 17:44:38;;;;;;;7.83;4.78;;;;;;;5.56;100.00;98023.31;4210663;83;28593;-86
2022/11/17 17:50:48;;;;;;;7.67;4.97;;;;;;;5.01;100.00;98018.27;4190661;83;28960;-91
2022/11/17 17:56:48;;;;;;;10.20;5.85;;;;;;;5.47;100.00;98005.48;4166764;84;28484;-87
2022/11/17 18:02:52;;;;;;;8.50;4.90;;;;;;;5.41;100.00;98004.49;4169387;84;28541;-89
2022/11/17 18:08:57;;;;;;;9.10;5.10;;;;;;;5.64;100.00;98012.86;4180977;83;36893;-88
2022/11/17 18:15:01;;;;;;;8.18;5.15;;;;;;;5.51;99.67;98009.31;4198956;83;28615;-88
2022/11/17 18:21:12;;;;;;;9.83;5.55;;;;;;;5.11;100.00;98003.92;4190640;83;28566;-85
2022/11/17 18:27:25;;;;;;;10.18;5.60;;;;;;;5.33;100.00;98011.48;4128679;83;28518;-89
2022/11/17 18:33:32;;;;;;;12.90;6.73;;;;;;;5.32;100.00;98002.36;4093281;85;28663;-89
2022/11/17 18:39:37;;;;;;;11.48;6.25;;;;;;;5.13;100.00;98007.17;4154404;83;28529;-87
2022/11/17 18:45:38;;;;;;;10.95;6.40;;;;;;;5.69;98.68;97991.67;4176803;83;28546;-89
2022/11/17 18:51:40;;;;;;;11.15;6.35;;;;;;;5.80;98.29;97984.75;4191495;83;28535;-83
2022/11/17 18:57:41;;;;;;;12.35;7.53;;;;;;;5.40;98.63;97980.20;4176953;83;28568;-87
2022/11/17 19:03:45;;;;;;;13.58;7.67;;;;;;;4.96;100.00;97976.30;4169527;83;28525;-87
2022/11/17 19:09:49;;;;;;;12.15;7.50;;;;;;;5.40;100.00;97971.41;4194041;83;28545;-86
2022/11/17 19:15:51;;;;;;;13.78;8.35;;;;;;;5.99;97.80;97963.65;4177907;83;28585;-85
2022/11/17 19:21:55;;;;;;;14.47;7.90;;;;;;;5.74;98.17;97947.80;4101113;85;29018;-89
2022/11/17 19:27:57;;;;;;;13.98;8.45;;;;;;;5.55;98.14;97945.16;4168281;83;28545;-87
2022/11/17 19:33:59;;;;;;;15.93;8.85;;;;;;;5.64;99.62;97936.34;4141598;84;28515;-87
2022/11/17 19:40:00;;;;;;;15.55;8.23;;;;;;;5.15;100.00;97950.47;4106474;85;28537;-83
2022/11/17 19:46:08;;;;;;;14.40;7.70;;;;;;;5.23;100.00;97960.01;4089079;85;28558;-87
2022/11/17 19:52:09;;;;;;;14.53;7.95;;;;;;;5.43;100.00;97958.96;4173152;84;28611;-79
2022/11/17 19:58:11;;;;;;;15.50;8.05;;;;;;;5.13;100.00;97975.70;4067232;85;28488;-85
2022/11/17 20:04:14;;;;;;;13.68;7.90;;;;;;;4.92;100.00;97975.09;4084967;85;28542;-89
2022/11/17 20:10:18;;;;;;;15.05;8.58;;;;;;;4.69;100.00;97974.42;4144381;84;28614;-87
2022/11/17 20:16:37;;;;;;;;;;;;;;;;;;;;;
2022/11/17 20:22:38;;;;;;;13.62;7.45;;;;;;;5.00;100.00;97977.48;4261135;82;28594;-84
2022/11/17 20:28:43;;;;;;;14.05;7.83;;;;;;;4.91;100.00;97978.80;4204093;83;28538;-80
2022/11/17 20:34:45;;;;;;;14.10;7.72;;;;;;;5.06;100.00;97978.98;4271236;82;28530;-82
2022/11/17 20:40:47;;;;;;;14.25;7.90;;;;;;;4.91;100.00;97979.33;4280696;82;28558;-79
2022/11/17 20:46:51;;;;;;;13.85;7.55;;;;;;;4.76;100.00;97963.17;4271417;82;28495;-79
2022/11/17 20:52:53;;;;;;;12.90;7.90;;;;;;;4.98;100.00;97969.41;4246613;82;28531;-78
2022/11/17 20:58:54;;;;;;;16.37;8.33;;;;;;;4.77;100.00;97966.13;4232808;82;28550;-77
2022/11/17 21:04:55;;;;;;;13.25;7.53;;;;;;;4.58;100.00;97962.12;4218767;83;28578;-76
2022/11/17 21:11:07;;;;;;;12.33;7.80;;;;;;;5.64;99.73;97953.68;4133648;84;28564;-79
2022/11/17 21:18:22;;;;;;;12.40;7.70;;;;;;;5.07;100.00;97942.77;4262112;82;28512;-79
2022/11/17 21:23:11;;;;;;;14.55;9.00;;;;;;;5.44;98.91;97949.92;4261652;82;28515;-79
2022/11/17 21:29:14;;;;;;;17.12;10.08;;;;;;;5.32;99.99;97932.56;4259554;82;28502;-77
2022/11/17 21:35:40;;;;;;;18.15;9.90;;;;;;;4.90;100.00;97921.77;4184335;84;28517;-76
2022/11/17 21:41:58;;;;;;;15.95;8.65;;;;;;;5.25;100.00;97917.95;4071360;85;28546;-77
2022/11/17 21:48:05;;;;;;;16.80;9.03;;;;;;;4.72;100.00;97917.52;4068318;85;28577;-78
2022/11/17 21:54:41;;;;;;;15.80;9.08;;;;;;;4.86;100.00;97893.43;4142249;83;28575;-76
2022/11/17 22:00:43;;;;;;;15.15;8.25;;;;;;;4.95;100.00;97885.44;4167747;83;28615;-76
2022/11/17 22:06:50;;;;;;;14.43;8.13;;;;;;;4.96;100.00;97884.91;4164416;84;28508;-80
2022/11/17 22:12:52;;;;;;;17.20;9.18;;;;;;;5.10;100.00;97875.73;4155151;84;28503;-80
2022/11/17 22:18:53;;;;;;;15.35;8.40;;;;;;;4.81;100.00;97885.28;4121290;84;28535;-81
2022/11/17 22:24:54;;;;;;;15.20;8.43;;;;;;;5.22;99.53;97885.10;4126702;85;28484;-80
2022/11/17 22:31:00;;;;;;;16.67;8.88;;;;;;;5.14;99.54;97885.41;4114558;85;28464;-80
2022/11/17 22:37:01;;;;;;;;;;;;;;;4.96;100.00;97880.91;4121476;85;28544;-79
2022/11/17 22:43:03;;;;;;;16.23;8.53;;;;;;;5.11;98.72;97882.69;4114976;86;20621;-78
2022/11/17 22:49:04;;;;;;;16.93;8.53;;;;;;;5.36;98.50;97868.42;4083802;85;29178;-77
2022/11/17 22:55:06;;;;;;;15.18;8.65;;;;;;;4.92;100.00;97879.20;4019548;86;28579;-77
2022/11/17 23:01:08;;;;;;;15.00;8.95;;;;;;;4.87;100.00;97868.42;4083661;84;28522;-80
2022/11/17 23:07:10;;;;;;;15.20;8.65;;;;;;;5.15;100.00;97863.88;4136900;85;28507;-80
2022/11/17 23:13:11;;;;;;;13.28;8.00;;;;;;;4.97;99.80;97864.72;4156445;84;28553;-81
2022/11/17 23:19:13;;;;;;;14.25;7.80;;;;;;;5.60;96.56;97863.16;4178487;84;28569;-81
2022/11/17 23:25:14;;;;;;;13.58;8.08;;;;;;;5.90;95.05;97844.16;4116145;85;28480;-80
2022/11/17 23:31:16;;;;;;;14.53;8.03;;;;;;;5.24;97.40;97844.91;4116920;85;28574;-79
2022/11/17 23:37:18;;;;;;;13.18;7.65;;;;;;;5.05;99.74;97837.45;4115372;85;28532;-79
2022/11/17 23:43:19;;;;;;;12.88;7.35;;;;;;;4.87;99.37;97831.14;4118897;85;28528;-79
2022/11/17 23:49:21;;;;;;;16.15;8.55;;;;;;;5.25;96.92;97821.22;4113513;85;28498;-80
2022/11/17 23:55:22;;;;;;;15.65;8.40;;;;;;;4.71;99.76;97821.91;4124570;85;28533;-80
